This is the latest recevied weather packets stored in our database for station/object TVARMINN. If no packets are shown the sender has not sent any weather packets the latest 10 day(s).
| Time | Temp. | Humidity | Pressure | Rain* | Wind** | Luminosity | Snow |
|---|---|---|---|---|---|---|---|
| 1777819631 | 10.56° C | 76% | 1008.8 hPa | 0 mm | - | - | - |
| 1777818431 | 11.67° C | 71% | 1008.7 hPa | 0 mm | - | - | - |
| 1777817231 | 10° C | 78% | 1008.7 hPa | 0 mm | - | - | - |
| 1777816031 | 10° C | 77% | 1008.8 hPa | 0 mm | - | - | - |
| 1777814831 | 9.44° C | 78% | 1008.8 hPa | 0 mm | - | - | - |
| 1777813631 | 10° C | 76% | 1009 hPa | 0 mm | - | - | - |
| 1777812431 | 10.56° C | 73% | 1008.8 hPa | 0 mm | - | - | - |
| 1777811231 | 10.56° C | 75% | 1008.8 hPa | 0 mm | - | - | - |
| 1777810031 | 12.78° C | 66% | 1008.9 hPa | 0 mm | - | - | - |
| 1777808832 | 13.33° C | 63% | 1008.8 hPa | 0 mm | - | - | - |
| 1777807631 | 13.89° C | 63% | 1008.8 hPa | 0 mm | - | - | - |
| 1777806430 | 11.67° C | 69% | 1008.9 hPa | 0 mm | - | - | - |
| 1777805236 | 11.67° C | 70% | 1008.8 hPa | 0 mm | - | - | - |
| 1777804031 | 14.44° C | 61% | 1008.8 hPa | 0 mm | - | - | - |
| 1777802831 | 14.44° C | 60% | 1008.7 hPa | 0 mm | - | - | - |
| 1777801631 | 13.33° C | 60% | 1008.8 hPa | 0 mm | - | - | - |
| 1777800430 | 12.22° C | 68% | 1008.8 hPa | 0 mm | - | - | - |
| 1777799231 | 11.11° C | 71% | 1008.9 hPa | 0 mm | - | - | - |
| 1777798030 | 11.11° C | 71% | 1008.6 hPa | 0 mm | - | - | - |
| 1777796830 | 9.44° C | 78% | 1008.7 hPa | 0 mm | - | - | - |
| 1777795630 | 10° C | 76% | 1008.7 hPa | 0 mm | - | - | - |
| 1777794430 | 9.44° C | 76% | 1008.5 hPa | 0 mm | - | - | - |
| 1777793230 | 10° C | 73% | 1008.2 hPa | 0 mm | - | - | - |
| 1777792030 | 9.44° C | 74% | 1007.9 hPa | 0 mm | - | - | - |
| 1777790830 | 9.44° C | 73% | 1007.9 hPa | 0 mm | - | - | - |
* Rain latest hour (hover to see other rain measurements)
** Current wind speed in m/s (hover to see current wind gust speed)